Time;durP1;ratioP1;P1;durP2;ratioP2;P2;SDS_P1;SDS_P2;PMS_P1;PMS_P2;Temp;Humidity;BMP_temperature;BMP_pressure;BME280_temperature;BME280_humidity;BME280_pressure;Samples;Min_cycle;Max_cycle;Signal;HPM_P1;HPM_P2
2021/09/27 00:02:14;;;;;;;11.75;7.65;;;;;;;12.98;84.19;95417.38;5098022;28;20508;-66
2021/09/27 00:04:40;;;;;;;6.47;3.95;;;;;;;12.89;84.95;95418.75;5096669;28;20050;-66
2021/09/27 00:07:07;;;;;;;5.38;3.53;;;;;;;12.85;84.90;95412.41;5093735;28;20121;-66
2021/09/27 00:09:34;;;;;;;5.20;3.25;;;;;;;12.94;84.65;95414.41;5097111;28;20048;-66
2021/09/27 00:12:04;;;;;;;5.68;3.10;;;;;;;12.90;84.90;95410.69;5100673;27;20055;-66
2021/09/27 00:14:31;;;;;;;5.50;3.67;;;;;;;12.82;85.52;95406.63;5099390;28;20413;-66
2021/09/27 00:17:00;;;;;;;6.65;3.10;;;;;;;12.95;84.65;95413.41;5099664;28;20051;-66
2021/09/27 00:19:26;;;;;;;4.15;2.30;;;;;;;12.91;84.33;95406.25;5091506;28;20051;-66
2021/09/27 00:21:54;;;;;;;4.63;3.13;;;;;;;12.88;84.49;95401.50;5094984;28;20043;-66
2021/09/27 00:24:22;;;;;;;4.78;3.08;;;;;;;12.90;84.67;95412.50;5097020;28;20028;-66
2021/09/27 00:26:48;;;;;;;4.38;2.42;;;;;;;12.94;85.01;95411.81;5095319;28;20112;-66
2021/09/27 00:29:15;;;;;;;4.18;3.13;;;;;;;12.86;84.77;95398.31;5098890;28;20122;-66
2021/09/27 00:31:42;;;;;;;4.28;2.92;;;;;;;13.03;84.62;95419.28;5097536;28;20047;-66
2021/09/27 00:34:09;;;;;;;5.03;2.85;;;;;;;13.05;84.47;95419.84;5095858;28;20051;-66
2021/09/27 00:36:36;;;;;;;4.47;2.83;;;;;;;13.03;84.25;95414.84;5095422;28;20050;-66
2021/09/27 00:39:05;;;;;;;5.82;3.25;;;;;;;13.01;83.82;95414.28;5100024;28;20035;-67
2021/09/27 00:41:33;;;;;;;5.00;2.83;;;;;;;12.97;83.96;95415.78;5098066;28;20413;-67
2021/09/27 00:44:00;;;;;;;3.92;2.80;;;;;;;12.87;84.09;95398.06;5092120;28;20047;-66
2021/09/27 00:46:29;;;;;;;8.57;3.30;;;;;;;12.96;83.89;95403.72;5099014;28;20502;-66
2021/09/27 00:48:56;;;;;;;5.75;3.30;;;;;;;12.95;84.53;95402.16;5092427;28;20544;-66
2021/09/27 00:51:35;;;;;;;4.68;3.05;;;;;;;12.78;85.23;95381.97;5095572;28;20039;-66
2021/09/27 00:54:09;;;;;;;5.43;3.00;;;;;;;12.88;85.21;95393.66;5094116;28;20036;-66
2021/09/27 00:56:45;;;;;;;5.47;2.88;;;;;;;12.90;84.58;95394.22;5096253;28;20050;-66
2021/09/27 00:59:13;;;;;;;5.60;2.55;;;;;;;12.76;84.55;95376.16;5092428;28;20036;-67
2021/09/27 01:01:40;;;;;;;4.43;2.42;;;;;;;12.89;84.47;95385.59;5095493;28;20051;-66
2021/09/27 01:04:07;;;;;;;3.70;2.25;;;;;;;12.90;83.77;95379.31;5099330;27;20036;-66
2021/09/27 01:06:49;;;;;;;5.80;3.53;;;;;;;12.85;84.04;95387.03;5093637;28;20035;-66
2021/09/27 01:09:41;;;;;;;4.07;3.25;;;;;;;12.84;84.40;95379.44;5092021;28;20049;-66
2021/09/27 01:12:46;;;;;;;4.30;2.92;;;;;;;12.79;84.78;95380.16;5097135;28;20044;-66
2021/09/27 01:15:34;;;;;;;2.72;2.25;;;;;;;12.76;84.85;95384.00;5094013;28;20040;-66
2021/09/27 01:18:16;;;;;;;6.30;2.83;;;;;;;12.74;84.74;95380.81;5094974;28;20497;-67
2021/09/27 01:20:49;;;;;;;6.43;2.85;;;;;;;12.71;84.48;95370.84;5094617;28;20048;-67
2021/09/27 01:23:48;;;;;;;4.05;2.85;;;;;;;12.72;85.73;95382.88;5091098;28;20040;-67
2021/09/27 01:26:22;;;;;;;5.68;2.63;;;;;;;12.63;86.14;95376.41;5045734;28;20117;-67
2021/09/27 01:29:37;;;;;;;4.60;2.88;;;;;;;12.44;86.94;95365.31;5096241;28;20052;-67
2021/09/27 01:32:22;;;;;;;5.18;3.00;;;;;;;12.52;86.24;95372.00;5089172;28;20081;-66
2021/09/27 01:35:00;;;;;;;5.28;2.70;;;;;;;12.52;85.67;95370.19;5092006;28;20097;-66
2021/09/27 01:38:00;;;;;;;4.40;2.45;;;;;;;12.52;85.78;95366.78;5096291;28;20040;-66
2021/09/27 01:40:55;;;;;;;3.88;2.72;;;;;;;12.49;85.57;95351.56;5101671;28;20473;-67
2021/09/27 01:43:48;;;;;;;5.38;3.38;;;;;;;12.38;85.10;95350.56;5100716;28;20035;-67
2021/09/27 01:46:35;;;;;;;3.60;2.40;;;;;;;12.40;85.09;95359.75;5101379;28;20052;-67
2021/09/27 01:49:09;;;;;;;4.28;2.47;;;;;;;12.29;85.23;95349.31;5101521;28;20560;-66
2021/09/27 01:52:20;;;;;;;3.35;2.55;;;;;;;12.34;85.17;95360.66;5097752;28;20040;-67
2021/09/27 01:54:51;;;;;;;4.38;2.65;;;;;;;12.28;85.02;95361.59;5027209;28;20103;-67
2021/09/27 01:57:30;;;;;;;4.65;2.60;;;;;;;12.19;85.22;95357.72;5088732;28;20121;-66
2021/09/27 02:00:06;;;;;;;3.95;2.75;;;;;;;12.20;85.13;95372.38;5097549;28;20097;-67
2021/09/27 02:02:51;;;;;;;3.60;2.15;;;;;;;12.05;85.17;95378.84;5103990;28;20438;-67
2021/09/27 02:05:41;;;;;;;4.20;2.97;;;;;;;11.80;86.37;95359.94;5096093;28;20040;-66
2021/09/27 02:08:24;;;;;;;3.95;2.58;;;;;;;11.85;87.53;95373.13;5100528;28;20043;-67
2021/09/27 02:10:57;;;;;;;4.47;3.22;;;;;;;11.83;87.84;95375.94;5095669;28;20047;-66
2021/09/27 02:13:35;;;;;;;5.03;2.70;;;;;;;11.84;87.28;95368.91;5102226;28;20074;-67
2021/09/27 02:16:11;;;;;;;4.70;3.42;;;;;;;11.80;87.09;95386.03;5096855;28;20050;-66
2021/09/27 02:18:50;;;;;;;5.05;3.05;;;;;;;11.65;87.04;95363.78;5099895;28;20044;-66
2021/09/27 02:21:25;;;;;;;4.25;2.95;;;;;;;11.57;87.15;95364.09;5096291;28;20040;-67
2021/09/27 02:24:26;;;;;;;6.80;2.58;;;;;;;11.58;87.82;95373.53;5096893;28;20404;-66
2021/09/27 02:26:53;;;;;;;4.18;3.05;;;;;;;11.54;88.01;95376.78;5093550;28;20512;-66
2021/09/27 02:29:21;;;;;;;3.67;2.40;;;;;;;11.51;87.59;95367.59;5100991;28;20085;-66
2021/09/27 02:32:09;;;;;;;5.28;2.90;;;;;;;11.53;87.95;95372.59;5099988;28;20035;-67
2021/09/27 02:34:44;;;;;;;5.47;3.45;;;;;;;11.48;89.02;95370.66;5096883;28;20028;-67
2021/09/27 02:37:43;;;;;;;5.38;3.03;;;;;;;11.53;88.84;95370.78;5097045;28;20048;-67
2021/09/27 02:40:36;;;;;;;4.10;2.88;;;;;;;11.60;88.35;95371.47;5092879;28;20047;-66
2021/09/27 02:43:07;;;;;;;4.90;3.10;;;;;;;11.58;87.81;95362.28;5099755;28;20068;-67
2021/09/27 02:45:37;;;;;;;4.18;2.85;;;;;;;11.59;87.91;95363.88;5096594;28;20475;-67
2021/09/27 02:48:14;;;;;;;4.07;2.95;;;;;;;11.54;89.08;95351.50;5097855;28;20119;-66
2021/09/27 02:50:46;;;;;;;8.45;3.15;;;;;;;11.51;89.55;95346.75;5094969;28;20550;-66
2021/09/27 02:53:13;;;;;;;8.00;3.38;;;;;;;11.71;89.59;95366.53;5097192;28;20048;-66
2021/09/27 02:56:10;;;;;;;8.68;3.65;;;;;;;11.77;89.11;95365.59;5097066;28;20409;-67
2021/09/27 02:58:44;;;;;;;6.32;3.53;;;;;;;11.63;89.54;95344.94;5097176;28;20044;-67
2021/09/27 03:01:19;;;;;;;;;;;;;;;11.69;89.61;95363.34;5096924;28;20036;-66
2021/09/27 03:03:52;;;;;;;;;;;;;;;11.62;89.58;95374.66;5104103;28;20381;-67
2021/09/27 03:06:30;;;;;;;4.85;2.53;;;;;;;11.58;89.63;95383.97;5097780;28;20360;-67
2021/09/27 03:08:57;;;;;;;5.07;2.80;;;;;;;11.56;89.87;95370.34;5099278;28;20054;-67
2021/09/27 03:11:31;;;;;;;8.27;3.38;;;;;;;11.52;90.75;95363.97;5099601;28;20044;-66
2021/09/27 03:14:22;;;;;;;5.93;4.18;;;;;;;11.58;91.45;95370.91;5095026;28;20054;-66
2021/09/27 03:17:02;;;;;;;4.55;3.35;;;;;;;11.58;90.69;95370.91;5095268;28;20044;-66
2021/09/27 03:20:17;;;;;;;7.18;3.10;;;;;;;11.62;90.26;95364.22;5098139;28;20113;-67
2021/09/27 03:23:06;;;;;;;4.32;2.40;;;;;;;11.54;90.73;95376.78;5078803;28;20101;-66
2021/09/27 03:25:33;;;;;;;6.43;3.38;;;;;;;11.56;89.56;95372.94;5094722;28;20493;-66
2021/09/27 03:28:08;;;;;;;7.82;3.22;;;;;;;11.52;89.38;95369.19;5100838;28;20039;-67
2021/09/27 03:31:02;;;;;;;9.02;3.20;;;;;;;11.53;89.92;95365.56;5096035;28;20055;-66
2021/09/27 03:33:34;;;;;;;7.45;3.22;;;;;;;11.59;90.01;95369.88;5072739;28;20080;-66
2021/09/27 03:36:19;;;;;;;4.78;2.95;;;;;;;11.69;89.81;95368.56;5093480;28;20035;-66
2021/09/27 03:39:05;;;;;;;6.85;3.15;;;;;;;11.62;89.38;95366.81;5088095;28;20516;-66
2021/09/27 03:41:40;;;;;;;5.20;3.30;;;;;;;11.58;89.44;95363.09;5097021;28;20730;-66
2021/09/27 03:44:13;;;;;;;4.05;2.85;;;;;;;11.53;89.79;95370.78;5095427;28;20044;-66
2021/09/27 03:46:52;;;;;;;8.13;3.75;;;;;;;11.52;90.99;95361.34;5096770;28;20093;-66
2021/09/27 03:49:27;;;;;;;5.15;3.35;;;;;;;11.29;93.89;95355.06;5101253;28;20055;-66
2021/09/27 03:52:19;;;;;;;8.43;3.25;;;;;;;11.04;94.86;95341.38;5097575;28;20497;-66
2021/09/27 03:54:53;;;;;;;6.65;3.78;;;;;;;11.07;94.22;95333.91;5095396;28;20058;-67
2021/09/27 03:57:47;;;;;;;7.75;4.22;;;;;;;11.12;94.27;95333.25;5096670;28;20043;-67
2021/09/27 04:00:22;;;;;;;6.28;3.03;;;;;;;10.94;94.75;95333.28;5097097;28;20040;-66
2021/09/27 04:03:21;;;;;;;4.85;3.15;;;;;;;10.44;97.33;95335.09;5094199;28;20043;-66
2021/09/27 04:06:10;;;;;;;4.10;3.03;;;;;;;10.29;97.47;95313.78;5096587;28;20036;-66
2021/09/27 04:08:57;;;;;;;7.35;2.63;;;;;;;10.34;97.52;95337.38;5104223;28;20536;-66
2021/09/27 04:11:37;;;;;;;4.72;2.97;;;;;;;10.25;97.91;95333.44;5098910;28;20039;-66
2021/09/27 04:14:16;;;;;;;5.40;2.78;;;;;;;10.21;97.79;95329.66;5092554;28;20036;-66
2021/09/27 04:16:55;;;;;;;9.70;3.28;;;;;;;10.26;97.73;95332.41;5095351;28;20051;-65
2021/09/27 04:19:54;;;;;;;4.03;2.75;;;;;;;10.30;97.50;95341.41;5098964;28;20100;-67
2021/09/27 04:22:35;;;;;;;5.10;2.92;;;;;;;10.33;96.46;95341.00;5094054;28;20044;-66
2021/09/27 04:25:02;;;;;;;4.90;2.97;;;;;;;10.34;95.88;95334.78;5095908;28;20039;-66
2021/09/27 04:27:55;;;;;;;5.82;3.22;;;;;;;10.38;95.65;95348.16;5096167;28;20040;-67
2021/09/27 04:30:44;;;;;;;4.38;3.70;;;;;;;10.44;95.59;95352.50;5094859;28;20063;-67
2021/09/27 04:33:27;;;;;;;6.90;4.18;;;;;;;10.45;96.05;95349.69;5097490;28;20577;-66
2021/09/27 04:36:18;;;;;;;4.38;3.05;;;;;;;10.46;96.66;95346.06;5091868;28;20090;-67
2021/09/27 04:38:48;;;;;;;5.15;2.75;;;;;;;10.39;96.29;95340.16;5096448;28;20044;-66
2021/09/27 04:41:45;;;;;;;4.97;3.35;;;;;;;10.56;97.02;95349.97;5097047;28;20059;-66
2021/09/27 04:44:33;;;;;;;5.18;3.22;;;;;;;10.51;97.23;95363.63;5090928;28;21004;-66
2021/09/27 04:47:09;;;;;;;5.32;3.25;;;;;;;10.54;97.36;95362.44;5092087;28;20055;-66
2021/09/27 04:49:54;;;;;;;4.13;2.58;;;;;;;10.55;97.91;95369.22;5092516;28;20044;-66
2021/09/27 04:52:45;;;;;;;6.28;3.80;;;;;;;10.59;98.11;95380.78;5093131;28;20112;-67
2021/09/27 04:55:21;;;;;;;6.50;3.85;;;;;;;10.63;98.73;95377.53;5092497;28;20438;-66
2021/09/27 04:58:09;;;;;;;5.30;3.45;;;;;;;10.69;99.68;95373.25;5093361;28;20421;-66
2021/09/27 05:00:57;;;;;;;5.45;3.15;;;;;;;10.74;100.00;95363.00;5088376;28;20136;-67
2021/09/27 05:03:39;;;;;;;11.77;3.95;;;;;;;10.79;100.00;95355.31;5096865;28;20104;-67
2021/09/27 05:06:28;;;;;;;5.35;3.55;;;;;;;10.95;100.00;95353.09;5092227;28;20040;-67
2021/09/27 05:09:35;;;;;;;6.32;4.05;;;;;;;11.05;100.00;95359.38;5094045;28;20036;-67
2021/09/27 05:12:04;;;;;;;6.93;3.95;;;;;;;11.16;100.00;95365.66;5056670;28;20056;-67
2021/09/27 05:14:49;;;;;;;7.60;4.10;;;;;;;11.34;100.00;95366.63;5097305;28;20047;-66
2021/09/27 05:17:43;;;;;;;6.20;3.28;;;;;;;11.35;100.00;95355.19;5100873;28;20035;-66
2021/09/27 05:20:32;;;;;;;4.50;2.92;;;;;;;11.55;100.00;95373.97;5102275;28;20039;-67
2021/09/27 05:23:29;;;;;;;5.53;3.28;;;;;;;11.61;100.00;95357.44;5085594;28;20044;-67
2021/09/27 05:26:13;;;;;;;7.75;4.05;;;;;;;11.77;100.00;95365.59;5088240;28;20048;-67
2021/09/27 05:28:56;;;;;;;5.75;4.25;;;;;;;11.78;100.00;95380.25;5100230;28;20044;-67
2021/09/27 05:31:48;;;;;;;7.13;3.92;;;;;;;11.87;100.00;95391.97;5094318;28;20040;-67
2021/09/27 05:34:33;;;;;;;7.22;4.35;;;;;;;11.98;100.00;95383.38;5097654;28;20059;-67
2021/09/27 05:37:20;;;;;;;8.05;5.70;;;;;;;12.13;100.00;95382.13;5096240;28;20064;-67
2021/09/27 05:40:02;;;;;;;7.25;4.50;;;;;;;12.16;100.00;95379.06;5099709;28;20051;-67
2021/09/27 05:42:58;;;;;;;9.32;5.05;;;;;;;12.12;100.00;95373.50;5093595;28;20562;-66
2021/09/27 05:45:57;;;;;;;8.82;5.15;;;;;;;12.20;100.00;95380.19;5096620;28;20040;-67
2021/09/27 05:48:42;;;;;;;7.00;5.03;;;;;;;12.15;100.00;95393.13;5091242;28;20043;-66
2021/09/27 05:51:11;;;;;;;7.28;4.60;;;;;;;12.12;100.00;95393.59;5091677;28;20052;-66
2021/09/27 05:54:02;;;;;;;10.57;4.95;;;;;;;12.19;100.00;95394.25;5095224;28;20047;-67
2021/09/27 05:56:44;;;;;;;9.77;5.03;;;;;;;12.21;100.00;95392.25;5090685;28;20123;-67
2021/09/27 05:59:23;;;;;;;7.90;4.70;;;;;;;12.27;100.00;95391.34;5090682;28;20053;-67
2021/09/27 06:02:09;;;;;;;9.52;5.10;;;;;;;12.44;100.00;95396.66;5090681;28;20087;-67
2021/09/27 06:04:52;;;;;;;7.30;5.47;;;;;;;12.47;100.00;95379.75;5093607;28;20047;-66
2021/09/27 06:07:18;;;;;;;7.03;4.55;;;;;;;12.68;100.00;95402.66;5093971;28;20039;-65
2021/09/27 06:09:57;;;;;;;6.25;4.38;;;;;;;12.76;99.05;95394.44;5092656;28;20052;-66
2021/09/27 06:12:32;;;;;;;8.85;4.90;;;;;;;12.88;98.68;95397.06;5097554;28;20046;-66
2021/09/27 06:15:03;;;;;;;6.80;4.20;;;;;;;12.97;98.05;95393.03;5091394;28;20066;-66
2021/09/27 06:17:56;;;;;;;7.72;4.90;;;;;;;13.08;98.05;95395.88;5096762;28;20039;-66
2021/09/27 06:20:31;;;;;;;7.82;5.03;;;;;;;13.16;95.97;95388.47;5091590;28;20531;-66
2021/09/27 06:22:59;;;;;;;8.13;5.25;;;;;;;13.25;96.08;95390.69;5089639;28;20052;-66
2021/09/27 06:25:38;;;;;;;7.18;4.70;;;;;;;13.40;95.88;95377.91;5094527;28;20044;-66
2021/09/27 06:28:34;;;;;;;8.10;4.45;;;;;;;13.55;96.41;95370.31;5100190;28;20047;-66
2021/09/27 06:31:12;;;;;;;10.18;5.65;;;;;;;13.68;94.78;95376.28;5099691;28;20067;-66
2021/09/27 06:34:16;;;;;;;6.50;4.28;;;;;;;13.90;93.55;95386.84;5094270;28;20039;-66
2021/09/27 06:36:44;;;;;;;8.07;4.40;;;;;;;14.06;91.71;95385.25;5098818;28;20085;-68
2021/09/27 06:39:19;;;;;;;7.43;4.43;;;;;;;14.21;92.26;95382.88;5092841;28;20520;-66
2021/09/27 06:41:49;;;;;;;6.53;4.50;;;;;;;14.38;91.07;95384.69;5094933;28;20409;-66
2021/09/27 06:44:16;;;;;;;6.82;4.75;;;;;;;14.55;89.96;95369.72;5095748;28;20542;-67
2021/09/27 06:46:45;;;;;;;6.40;4.60;;;;;;;14.66;90.04;95374.09;5096115;28;20100;-67
2021/09/27 06:49:12;;;;;;;7.20;4.97;;;;;;;14.75;89.76;95371.03;5098539;28;20040;-67
2021/09/27 06:51:42;;;;;;;8.60;4.53;;;;;;;14.91;89.40;95380.69;5098947;28;20047;-66
2021/09/27 06:54:09;;;;;;;8.95;5.13;;;;;;;15.08;88.80;95381.41;5097902;28;20039;-67
2021/09/27 06:56:37;;;;;;;9.13;4.95;;;;;;;15.15;87.46;95385.69;5096266;28;20039;-67
2021/09/27 06:59:04;;;;;;;7.28;4.30;;;;;;;15.29;86.82;95392.91;5095563;27;20052;-67
2021/09/27 07:01:31;;;;;;;6.82;3.78;;;;;;;15.36;86.38;95392.72;5098804;28;20043;-67
2021/09/27 07:03:58;;;;;;;9.05;6.10;;;;;;;15.39;86.43;95392.22;5099962;28;20519;-67
2021/09/27 07:06:25;;;;;;;5.20;3.92;;;;;;;15.45;86.94;95390.47;5095225;28;20044;-66
2021/09/27 07:08:53;;;;;;;6.75;3.90;;;;;;;15.49;86.83;95394.94;5093372;28;20425;-66
2021/09/27 07:11:20;;;;;;;7.63;3.97;;;;;;;15.47;86.90;95389.16;5091792;28;20069;-66
2021/09/27 07:13:47;;;;;;;6.47;4.22;;;;;;;15.44;86.63;95368.66;5092605;28;20052;-66
2021/09/27 07:16:14;;;;;;;6.35;4.63;;;;;;;15.53;86.31;95376.09;5098510;28;20032;-66
2021/09/27 07:19:00;;;;;;;8.73;4.70;;;;;;;15.61;85.40;95373.00;5093549;27;20056;-67
2021/09/27 07:21:27;;;;;;;6.80;4.72;;;;;;;15.85;85.25;95378.75;5094260;28;20044;-66
2021/09/27 07:23:54;;;;;;;9.95;4.35;;;;;;;16.03;85.80;95374.97;5097005;27;20055;-66
2021/09/27 07:26:20;;;;;;;10.18;4.60;;;;;;;16.19;84.30;95374.03;5094748;28;20395;-66
2021/09/27 07:28:52;;;;;;;7.10;3.50;;;;;;;16.41;82.88;95375.75;5092369;28;20040;-66
2021/09/27 07:31:20;;;;;;;8.77;3.97;;;;;;;16.53;81.71;95376.34;5093609;28;20055;-67
2021/09/27 07:33:47;;;;;;;7.78;4.43;;;;;;;16.77;81.60;95368.03;5098947;28;20040;-67
2021/09/27 07:36:14;;;;;;;7.60;3.85;;;;;;;16.96;81.33;95363.94;5100915;28;20048;-67
2021/09/27 07:38:41;;;;;;;5.38;3.60;;;;;;;17.13;79.77;95360.31;5100919;28;20051;-67
2021/09/27 07:41:08;;;;;;;7.65;4.22;;;;;;;17.29;78.44;95359.28;5098132;28;20467;-66
2021/09/27 07:43:36;;;;;;;5.22;3.05;;;;;;;17.38;77.89;95357.72;5093050;28;20040;-67
2021/09/27 07:46:03;;;;;;;5.65;3.20;;;;;;;17.60;74.76;95354.06;5093494;28;20032;-66
2021/09/27 07:48:30;;;;;;;4.43;2.90;;;;;;;17.70;75.74;95343.56;5097183;28;20088;-66
2021/09/27 07:50:57;;;;;;;7.32;5.03;;;;;;;17.86;76.00;95346.19;5097475;28;20054;-66
2021/09/27 07:53:24;;;;;;;4.03;2.97;;;;;;;18.09;74.00;95350.94;5097185;28;20039;-67
2021/09/27 07:55:52;;;;;;;3.58;2.78;;;;;;;18.37;72.47;95367.25;5087947;28;20039;-67
2021/09/27 07:58:20;;;;;;;4.35;2.90;;;;;;;18.60;72.39;95365.06;5099430;28;20043;-66
2021/09/27 08:00:49;;;;;;;7.03;3.80;;;;;;;18.74;70.78;95360.81;5097213;28;20052;-66
2021/09/27 08:03:16;;;;;;;5.03;3.22;;;;;;;19.06;71.35;95341.19;5097985;28;20536;-67
2021/09/27 08:05:43;;;;;;;4.90;2.80;;;;;;;19.19;70.48;95355.63;5099160;28;20040;-68
2021/09/27 08:08:10;;;;;;;4.45;3.05;;;;;;;19.35;68.88;95349.22;5093306;28;20100;-66
2021/09/27 08:10:39;;;;;;;7.20;3.75;;;;;;;19.40;68.97;95345.75;5097639;27;20108;-65
2021/09/27 08:13:07;;;;;;;5.03;2.97;;;;;;;19.52;67.13;95351.50;5095057;28;20051;-67
2021/09/27 08:15:39;;;;;;;4.40;2.05;;;;;;;19.52;67.73;95348.84;5093401;28;20385;-66
2021/09/27 08:18:08;;;;;;;4.45;3.17;;;;;;;19.64;66.76;95351.94;5098100;28;20063;-67
2021/09/27 08:21:12;;;;;;;4.53;2.83;;;;;;;19.78;67.14;95351.34;5100107;28;20040;-67
2021/09/27 08:23:46;;;;;;;4.70;2.42;;;;;;;19.83;67.61;95346.00;5043226;28;20429;-67
2021/09/27 08:26:14;;;;;;;3.83;2.40;;;;;;;19.92;67.47;95340.94;5094505;28;20067;-67
2021/09/27 08:28:42;;;;;;;4.82;2.70;;;;;;;20.11;65.11;95341.00;5097851;28;20050;-68
2021/09/27 08:31:14;;;;;;;4.55;2.83;;;;;;;20.31;63.71;95332.91;5098456;28;20588;-67
2021/09/27 08:33:42;;;;;;;3.35;2.40;;;;;;;20.45;63.90;95333.00;5096470;28;20043;-68
2021/09/27 08:36:11;;;;;;;6.43;2.80;;;;;;;20.60;63.32;95329.41;5099951;28;20040;-67
2021/09/27 08:38:39;;;;;;;4.10;3.20;;;;;;;20.67;62.76;95329.91;5097015;28;20055;-67
2021/09/27 08:41:24;;;;;;;8.77;2.97;;;;;;;20.85;61.52;95330.19;5100405;28;20047;-67
2021/09/27 08:44:00;;;;;;;3.60;2.70;;;;;;;21.09;61.11;95330.97;5094545;28;20079;-67
2021/09/27 08:46:35;;;;;;;4.43;2.40;;;;;;;21.12;62.83;95335.69;5088772;28;20462;-68
2021/09/27 08:49:33;;;;;;;3.05;2.20;;;;;;;21.46;60.81;95328.63;5098833;28;20105;-67
2021/09/27 08:52:01;;;;;;;3.25;2.55;;;;;;;21.65;59.62;95320.66;5092496;28;20425;-67
2021/09/27 08:54:30;;;;;;;2.95;2.25;;;;;;;21.66;59.15;95316.94;5096300;28;20512;-67
2021/09/27 08:57:16;;;;;;;3.58;2.78;;;;;;;21.69;62.43;95311.06;5102674;28;20557;-67
2021/09/27 08:59:48;;;;;;;2.83;2.08;;;;;;;21.76;60.77;95311.47;5100816;28;20054;-68
2021/09/27 09:02:58;;;;;;;3.63;2.70;;;;;;;22.09;59.27;95311.44;5094597;28;20040;-67
2021/09/27 09:05:25;;;;;;;2.22;1.98;;;;;;;22.41;57.39;95320.47;5078558;28;20535;-67
2021/09/27 09:08:04;;;;;;;3.50;2.55;;;;;;;22.68;55.61;95320.47;5096267;28;20047;-68
2021/09/27 09:11:12;;;;;;;3.70;2.53;;;;;;;23.03;55.93;95318.19;5101974;28;20044;-67
2021/09/27 09:13:43;;;;;;;4.68;2.97;;;;;;;23.30;53.29;95313.94;5076773;28;20060;-67
2021/09/27 09:16:15;;;;;;;2.53;2.00;;;;;;;23.77;51.55;95306.44;5096028;28;20036;-67
2021/09/27 09:18:47;;;;;;;3.45;2.30;;;;;;;24.05;50.12;95291.13;5094987;28;20047;-67
2021/09/27 09:21:31;;;;;;;4.35;2.67;;;;;;;24.13;51.90;95297.59;5095825;28;20078;-67
2021/09/27 09:24:02;;;;;;;2.05;1.70;;;;;;;24.59;47.81;95304.38;5089118;28;20048;-67
2021/09/27 09:26:38;;;;;;;2.97;2.08;;;;;;;25.10;47.78;95296.03;5095467;28;20118;-68
2021/09/27 09:29:06;;;;;;;3.67;2.90;;;;;;;25.49;47.70;95289.03;5098385;28;20542;-68
2021/09/27 09:31:43;;;;;;;25.23;7.13;;;;;;;25.87;46.62;95285.69;5093704;28;20151;-67
2021/09/27 09:34:22;;;;;;;2.60;1.85;;;;;;;25.90;44.58;95291.16;5093424;28;20509;-68
2021/09/27 09:36:52;;;;;;;7.55;2.38;;;;;;;25.63;45.11;95281.63;5090518;28;20028;-67
2021/09/27 09:39:51;;;;;;;4.40;2.95;;;;;;;25.45;45.88;95264.09;5097571;28;20054;-67
2021/09/27 09:42:18;;;;;;;2.50;1.98;;;;;;;25.64;44.00;95277.88;5088467;28;20044;-68
2021/09/27 09:44:48;;;;;;;3.08;2.17;;;;;;;25.49;46.52;95273.03;5092602;28;20040;-68
2021/09/27 09:47:18;;;;;;;3.78;2.42;;;;;;;25.32;45.07;95277.28;5090130;28;20618;-67
2021/09/27 09:50:03;;;;;;;2.50;2.10;;;;;;;25.36;45.48;95267.53;5091280;28;20048;-68
2021/09/27 09:52:48;;;;;;;3.13;2.33;;;;;;;25.32;45.45;95269.28;5092443;28;20047;-68
2021/09/27 09:55:21;;;;;;;3.38;2.13;;;;;;;25.12;45.73;95261.84;5086573;28;20048;-67
2021/09/27 09:58:05;;;;;;;3.47;1.85;;;;;;;25.43;45.67;95266.31;5093165;28;20413;-67
2021/09/27 10:00:38;;;;;;;3.40;2.35;;;;;;;26.00;45.71;95263.41;5092746;28;20515;-68
2021/09/27 10:03:06;;;;;;;1.92;1.58;;;;;;;26.40;42.37;95260.41;5092419;28;20044;-68
2021/09/27 10:05:48;;;;;;;2.65;2.13;;;;;;;26.93;42.10;95260.16;5089212;28;20040;-68
2021/09/27 10:08:19;;;;;;;5.00;1.88;;;;;;;26.78;41.33;95254.28;5082319;28;20048;-68
2021/09/27 10:10:56;;;;;;;2.75;1.70;;;;;;;26.73;40.06;95251.78;5094706;28;20051;-68
2021/09/27 10:13:44;;;;;;;3.15;2.13;;;;;;;26.86;39.41;95242.72;5089516;28;20056;-67
2021/09/27 10:16:37;;;;;;;2.30;1.63;;;;;;;27.31;39.13;95248.56;5092092;28;20105;-68
2021/09/27 10:19:25;;;;;;;3.47;2.08;;;;;;;28.15;37.26;95253.75;5083625;28;20094;-68
2021/09/27 10:21:59;;;;;;;2.95;2.03;;;;;;;28.55;35.07;95253.13;5099583;28;20104;-67
2021/09/27 10:24:35;;;;;;;2.45;1.92;;;;;;;28.16;37.34;95239.22;5092134;28;20040;-68
2021/09/27 10:27:15;;;;;;;2.67;1.80;;;;;;;28.30;37.32;95228.97;5096820;28;20048;-67
2021/09/27 10:29:42;;;;;;;2.75;2.22;;;;;;;28.40;37.99;95239.25;5097333;28;20055;-67
2021/09/27 10:32:28;;;;;;;3.28;1.77;;;;;;;28.81;36.66;95235.88;5089130;28;20047;-67
2021/09/27 10:34:58;;;;;;;2.83;2.20;;;;;;;29.06;35.60;95237.38;5095215;28;20084;-67
2021/09/27 10:37:26;;;;;;;2.08;1.88;;;;;;;29.29;33.56;95234.22;5096886;28;20047;-67
2021/09/27 10:39:56;;;;;;;2.80;1.55;;;;;;;29.04;35.03;95220.84;5103281;28;20043;-67
2021/09/27 10:42:38;;;;;;;2.95;1.42;;;;;;;29.54;33.94;95224.94;5092583;28;20084;-67
2021/09/27 10:45:11;;;;;;;2.33;1.73;;;;;;;29.67;32.43;95222.19;5107103;28;20111;-67
2021/09/27 10:47:44;;;;;;;2.65;1.85;;;;;;;30.27;32.01;95212.22;5099918;28;20528;-66
2021/09/27 10:50:37;;;;;;;6.03;2.80;;;;;;;30.00;32.20;95199.66;5101299;28;20052;-66
2021/09/27 10:53:14;;;;;;;17.40;3.47;;;;;;;29.87;33.70;95198.97;5095522;28;20468;-67
2021/09/27 10:55:47;;;;;;;2.00;1.42;;;;;;;30.32;33.20;95197.72;5090722;28;20093;-67
2021/09/27 10:58:39;;;;;;;5.17;2.03;;;;;;;30.01;33.06;95190.47;5102906;28;20039;-66
2021/09/27 11:01:08;;;;;;;2.97;1.90;;;;;;;30.76;32.10;95189.53;5096375;28;21029;-66
2021/09/27 11:03:47;;;;;;;2.45;1.50;;;;;;;30.74;31.04;95188.31;5096506;28;20803;-67
2021/09/27 11:06:26;;;;;;;2.38;1.88;;;;;;;31.39;29.56;95188.50;5100963;28;20032;-67
2021/09/27 11:09:05;;;;;;;1.80;1.55;;;;;;;31.58;27.63;95184.22;5098067;28;20063;-67
2021/09/27 11:11:33;;;;;;;2.13;1.42;;;;;;;32.09;27.27;95175.91;5093934;28;20114;-67
2021/09/27 11:14:18;;;;;;;2.40;1.40;;;;;;;32.66;25.99;95180.59;5091503;28;20051;-67
2021/09/27 11:16:53;;;;;;;2.40;1.40;;;;;;;33.01;25.47;95174.06;5093538;28;20067;-67
2021/09/27 11:19:32;;;;;;;1.35;0.80;;;;;;;33.50;24.52;95168.50;5093525;28;20066;-67
2021/09/27 11:22:14;;;;;;;4.38;1.70;;;;;;;33.80;23.17;95164.16;5093470;28;20085;-67
2021/09/27 11:24:44;;;;;;;1.70;1.52;;;;;;;34.19;24.28;95163.72;5090191;28;20044;-67
2021/09/27 11:27:17;;;;;;;1.65;1.40;;;;;;;34.60;23.18;95160.91;5101195;28;20483;-67
2021/09/27 11:29:51;;;;;;;2.28;1.55;;;;;;;34.38;24.08;95155.38;5097660;28;20047;-67
2021/09/27 11:32:30;;;;;;;1.60;1.25;;;;;;;34.15;22.79;95157.50;5099995;28;20046;-67
2021/09/27 11:35:30;;;;;;;3.75;1.50;;;;;;;33.83;23.83;95163.41;5091849;28;20509;-66
2021/09/27 11:38:05;;;;;;;1.63;1.20;;;;;;;33.45;24.91;95154.56;5081563;28;20059;-67
2021/09/27 11:40:36;;;;;;;1.50;1.00;;;;;;;33.58;24.22;95147.72;5095632;28;20042;-66
2021/09/27 11:43:03;;;;;;;1.75;1.30;;;;;;;33.67;24.05;95148.25;5098833;28;20055;-67
2021/09/27 11:45:29;;;;;;;4.68;1.77;;;;;;;32.76;25.23;95142.97;5101645;28;20043;-67
2021/09/27 11:48:06;;;;;;;2.72;1.60;;;;;;;33.54;24.38;95141.53;5090766;28;20055;-67
2021/09/27 11:50:45;;;;;;;2.30;1.55;;;;;;;33.19;26.83;95142.72;5086578;28;20052;-67
2021/09/27 11:53:39;;;;;;;2.33;1.27;;;;;;;33.02;25.26;95137.88;5090851;28;20525;-66
2021/09/27 11:56:18;;;;;;;2.20;1.35;;;;;;;33.16;23.59;95138.06;5095423;28;20040;-66
2021/09/27 11:59:08;;;;;;;2.60;1.52;;;;;;;34.08;22.68;95134.66;5093943;28;20423;-66
2021/09/27 12:01:38;;;;;;;2.10;1.27;;;;;;;34.05;23.25;95132.72;5103567;28;20174;-67
2021/09/27 12:04:33;;;;;;;3.13;1.92;;;;;;;34.88;20.91;95133.25;5088936;28;20536;-66
2021/09/27 12:07:04;;;;;;;1.60;1.25;;;;;;;35.37;19.12;95131.09;5102620;28;20046;-66
2021/09/27 12:09:37;;;;;;;2.70;1.33;;;;;;;35.46;19.92;95134.19;5101465;28;20417;-66
2021/09/27 12:12:07;;;;;;;2.10;1.60;;;;;;;35.67;19.88;95135.38;5098092;28;20054;-66
2021/09/27 12:14:47;;;;;;;2.58;1.52;;;;;;;35.94;19.51;95136.59;5101358;28;20111;-67
2021/09/27 12:17:17;;;;;;;1.30;0.82;;;;;;;35.98;18.91;95134.63;5087027;28;20055;-66
2021/09/27 12:19:55;;;;;;;3.08;1.30;;;;;;;36.13;18.52;95127.25;5103281;28;20040;-66
2021/09/27 12:22:28;;;;;;;1.73;1.27;;;;;;;36.16;18.75;95115.63;5093082;28;20530;-66
2021/09/27 12:24:58;;;;;;;1.60;1.38;;;;;;;35.24;19.01;95122.56;5085047;28;20051;-66